Time,TemperatureF,DewpointF,PressureIn,WindDirection,WindDirectionDegrees,WindSpeedMPH,WindSpeedGustMPH,Humidity,HourlyPrecipIn,Conditions,Clouds,dailyrainin,SoftwareType,DateUTC
2013-04-13 00:00:00,41.9,32.1,29.83,SW,229,1.0,1.0,68,0.00,,,0.37,Wunderground v.1.15,2013-04-13 04:00:00,
2013-04-13 00:05:00,41.9,32.1,29.83,SW,223,1.0,1.0,68,0.00,,,0.00,Wunderground v.1.15,2013-04-13 04:05:00,
2013-04-13 00:10:00,41.9,32.1,29.83,South,190,0.0,2.0,68,0.00,,,0.00,Wunderground v.1.15,2013-04-13 04:10:00,
2013-04-13 00:15:00,41.9,32.5,29.83,SSW,198,1.0,2.0,69,0.00,,,0.00,Wunderground v.1.15,2013-04-13 04:15:00,
2013-04-13 00:25:00,41.9,32.5,29.83,SSE,149,0.0,2.0,69,0.00,,,0.00,Wunderground v.1.15,2013-04-13 04:25:00,
2013-04-13 00:30:00,41.9,32.1,29.83,WSW,237,0.0,0.0,68,0.00,,,0.00,Wunderground v.1.15,2013-04-13 04:30:00,
2013-04-13 00:35:00,41.9,32.8,29.83,WSW,256,0.0,3.0,70,0.00,,,0.00,Wunderground v.1.15,2013-04-13 04:35:00,
2013-04-13 00:45:00,41.9,32.5,29.83,SSE,152,1.0,1.0,69,0.00,,,0.00,Wunderground v.1.15,2013-04-13 04:45:00,
2013-04-13 00:55:00,41.9,32.8,29.83,NE,34,0.0,1.0,70,0.00,,,0.00,Wunderground v.1.15,2013-04-13 04:55:00,
2013-04-13 01:00:00,41.9,32.5,29.83,NE,34,0.0,0.0,69,0.00,,,0.00,Wunderground v.1.15,2013-04-13 05:00:00,
2013-04-13 01:05:00,41.9,32.8,29.84,WNW,284,0.0,0.0,70,0.00,,,0.00,Wunderground v.1.15,2013-04-13 05:05:00,
2013-04-13 01:15:00,41.9,32.5,29.84,WSW,255,1.0,2.0,69,0.00,,,0.00,Wunderground v.1.15,2013-04-13 05:15:00,
2013-04-13 01:25:00,41.9,32.5,29.85,West,267,1.0,1.0,69,0.00,,,0.00,Wunderground v.1.15,2013-04-13 05:25:00,
2013-04-13 01:30:00,41.9,32.5,29.85,WSW,254,0.0,2.0,69,0.00,,,0.00,Wunderground v.1.15,2013-04-13 05:30:00,
2013-04-13 01:40:00,41.9,32.8,29.85,WSW,254,0.0,0.0,70,0.00,,,0.00,Wunderground v.1.15,2013-04-13 05:40:00,
2013-04-13 01:45:00,41.8,32.7,29.85,WSW,254,0.0,0.0,70,0.00,,,0.00,Wunderground v.1.15,2013-04-13 05:45:00,
2013-04-13 01:55:00,41.8,32.7,29.85,West,259,0.0,0.0,70,0.00,,,0.00,Wunderground v.1.15,2013-04-13 05:55:00,
2013-04-13 02:00:00,41.6,32.5,29.85,West,259,0.0,0.0,70,0.00,,,0.00,Wunderground v.1.15,2013-04-13 06:00:00,
2013-04-13 02:05:00,41.6,32.9,29.85,West,259,0.0,1.0,71,0.00,,,0.00,Wunderground v.1.15,2013-04-13 06:05:00,
2013-04-13 02:15:00,41.5,33.1,29.85,West,259,0.0,0.0,72,0.00,,,0.00,Wunderground v.1.15,2013-04-13 06:15:00,
2013-04-13 02:25:00,41.5,33.1,29.85,West,259,0.0,0.0,72,0.00,,,0.00,Wunderground v.1.15,2013-04-13 06:25:00,
2013-04-13 02:30:00,41.5,33.5,29.85,SE,136,0.0,0.0,73,0.00,,,0.00,Wunderground v.1.15,2013-04-13 06:30:00,
2013-04-13 02:40:00,41.5,33.5,29.85,ESE,117,0.0,1.0,73,0.00,,,0.00,Wunderground v.1.15,2013-04-13 06:40:00,
2013-04-13 02:45:00,41.5,33.1,29.85,South,180,0.0,2.0,72,0.00,,,0.00,Wunderground v.1.15,2013-04-13 06:45:00,
2013-04-13 02:55:00,41.6,33.2,29.85,SE,142,1.0,1.0,72,0.00,,,0.00,Wunderground v.1.15,2013-04-13 06:55:00,
2013-04-13 03:00:00,41.6,33.2,29.85,SW,235,1.0,1.0,72,0.00,,,0.00,Wunderground v.1.15,2013-04-13 07:00:00,
2013-04-13 03:10:00,41.6,33.2,29.85,WSW,255,0.0,0.0,72,0.00,,,0.00,Wunderground v.1.15,2013-04-13 07:10:00,
2013-04-13 03:15:00,41.6,33.2,29.85,NW,324,1.0,1.0,72,0.00,,,0.00,Wunderground v.1.15,2013-04-13 07:15:00,
2013-04-13 03:25:00,41.6,32.9,29.85,West,268,1.0,1.0,71,0.00,,,0.00,Wunderground v.1.15,2013-04-13 07:25:00,
2013-04-13 03:30:00,41.8,33.4,29.85,WSW,256,1.0,1.0,72,0.00,,,0.00,Wunderground v.1.15,2013-04-13 07:30:00,
2013-04-13 03:40:00,41.6,33.6,29.85,SW,223,1.0,1.0,73,0.00,,,0.00,Wunderground v.1.15,2013-04-13 07:40:00,
2013-04-13 03:45:00,41.5,33.8,29.85,SW,234,1.0,1.0,74,0.00,,,0.00,Wunderground v.1.15,2013-04-13 07:45:00,
2013-04-13 03:55:00,41.2,33.9,29.85,West,277,1.0,1.0,75,0.00,,,0.00,Wunderground v.1.15,2013-04-13 07:55:00,
2013-04-13 04:00:00,41.1,33.8,29.85,SW,227,1.0,1.0,75,0.00,,,0.00,Wunderground v.1.15,2013-04-13 08:00:00,
2013-04-13 04:10:00,40.8,33.5,29.85,SSW,212,1.0,2.0,75,0.00,,,0.00,Wunderground v.1.15,2013-04-13 08:10:00,
2013-04-13 04:15:00,40.8,33.2,29.85,SW,229,1.0,2.0,74,0.00,,,0.00,Wunderground v.1.15,2013-04-13 08:15:00,
2013-04-13 04:25:00,40.6,32.6,29.85,SW,222,1.0,1.0,73,0.00,,,0.00,Wunderground v.1.15,2013-04-13 08:25:00,
2013-04-13 04:30:00,40.6,32.6,29.85,West,266,1.0,2.0,73,0.00,,,0.00,Wunderground v.1.15,2013-04-13 08:30:00,
2013-04-13 04:40:00,40.6,32.6,29.85,NNE,31,1.0,2.0,73,0.00,,,0.00,Wunderground v.1.15,2013-04-13 08:40:00,
2013-04-13 04:45:00,40.5,32.2,29.85,SSW,211,1.0,2.0,72,0.00,,,0.00,Wunderground v.1.15,2013-04-13 08:45:00,
2013-04-13 04:55:00,40.5,31.8,29.85,WSW,244,1.0,2.0,71,0.00,,,0.00,Wunderground v.1.15,2013-04-13 08:55:00,
2013-04-13 05:05:00,40.5,32.2,29.84,WNW,284,1.0,1.0,72,0.00,,,0.00,Wunderground v.1.15,2013-04-13 09:05:00,
2013-04-13 05:10:00,40.5,32.2,29.84,WNW,284,0.0,0.0,72,0.00,,,0.00,Wunderground v.1.15,2013-04-13 09:10:00,
2013-04-13 05:15:00,40.3,32.0,29.84,West,268,0.0,1.0,72,0.00,,,0.00,Wunderground v.1.15,2013-04-13 09:15:00,
2013-04-13 05:25:00,40.3,32.3,29.84,West,266,1.0,2.0,73,0.00,,,0.00,Wunderground v.1.15,2013-04-13 09:25:00,
2013-04-13 05:30:00,40.3,32.0,29.84,WSW,257,1.0,1.0,72,0.00,,,0.00,Wunderground v.1.15,2013-04-13 09:30:00,
2013-04-13 05:40:00,40.3,32.3,29.84,WSW,257,0.0,0.0,73,0.00,,,0.00,Wunderground v.1.15,2013-04-13 09:40:00,
2013-04-13 05:45:00,40.2,32.2,29.84,WSW,257,0.0,0.0,73,0.00,,,0.00,Wunderground v.1.15,2013-04-13 09:45:00,
2013-04-13 05:55:00,40.1,32.5,29.84,WSW,257,0.0,0.0,74,0.00,,,0.00,Wunderground v.1.15,2013-04-13 09:55:00,
2013-04-13 06:00:00,40.1,32.8,29.84,NE,46,0.0,0.0,75,0.00,,,0.00,Wunderground v.1.15,2013-04-13 10:00:00,
2013-04-13 06:10:00,39.9,32.9,29.84,SW,230,0.0,0.0,76,0.00,,,0.00,Wunderground v.1.15,2013-04-13 10:10:00,
2013-04-13 06:15:00,39.9,32.9,29.84,NE,37,0.0,0.0,76,0.00,,,0.00,Wunderground v.1.15,2013-04-13 10:15:00,
2013-04-13 06:25:00,39.9,31.9,29.84,West,266,0.0,0.0,73,0.00,,,0.00,Wunderground v.1.15,2013-04-13 10:25:00,
2013-04-13 06:30:00,39.9,32.3,29.84,West,266,0.0,1.0,74,0.00,,,0.00,Wunderground v.1.15,2013-04-13 10:30:00,
2013-04-13 06:40:00,39.9,31.6,29.85,SW,215,1.0,1.0,72,0.00,,,0.00,Wunderground v.1.15,2013-04-13 10:40:00,
2013-04-13 06:50:00,40.1,31.8,29.85,West,280,0.0,0.0,72,0.00,,,0.00,Wunderground v.1.15,2013-04-13 10:50:00,
2013-04-13 07:00:00,39.9,32.3,29.85,SE,138,0.0,2.0,74,0.00,,,0.00,Wunderground v.1.15,2013-04-13 11:00:00,
2013-04-13 07:10:00,39.9,31.9,29.85,WSW,240,0.0,0.0,73,0.00,,,0.00,Wunderground v.1.15,2013-04-13 11:10:00,
2013-04-13 07:15:00,39.9,31.9,29.85,WSW,240,0.0,0.0,73,0.00,,,0.00,Wunderground v.1.15,2013-04-13 11:15:00,
2013-04-13 07:25:00,39.9,31.6,29.86,SW,229,0.0,1.0,72,0.00,,,0.00,Wunderground v.1.15,2013-04-13 11:25:00,
2013-04-13 07:30:00,40.1,31.8,29.86,SSW,192,1.0,1.0,72,0.00,,,0.00,Wunderground v.1.15,2013-04-13 11:30:00,
2013-04-13 07:40:00,40.1,32.5,29.86,SSW,192,0.0,0.0,74,0.00,,,0.00,Wunderground v.1.15,2013-04-13 11:40:00,
2013-04-13 07:45:00,40.1,32.1,29.86,WSW,246,1.0,2.0,73,0.00,,,0.00,Wunderground v.1.15,2013-04-13 11:45:00,
2013-04-13 07:55:00,40.1,32.5,29.87,SE,137,1.0,1.0,74,0.00,,,0.00,Wunderground v.1.15,2013-04-13 11:55:00,
2013-04-13 08:00:00,40.2,32.2,29.87,South,181,1.0,1.0,73,0.00,,,0.00,Wunderground v.1.15,2013-04-13 12:00:00,
2013-04-13 08:10:00,40.3,32.3,29.87,SW,223,1.0,1.0,73,0.00,,,0.00,Wunderground v.1.15,2013-04-13 12:10:00,
2013-04-13 08:15:00,40.3,32.3,29.87,SW,218,1.0,1.0,73,0.00,,,0.00,Wunderground v.1.15,2013-04-13 12:15:00,
2013-04-13 08:25:00,40.5,32.5,29.88,WSW,239,1.0,2.0,73,0.00,,,0.00,Wunderground v.1.15,2013-04-13 12:25:00,
2013-04-13 08:35:00,40.6,32.6,29.88,SW,223,1.0,3.0,73,0.00,,,0.00,Wunderground v.1.15,2013-04-13 12:35:00,
2013-04-13 08:40:00,40.6,32.6,29.88,SW,214,1.0,1.0,73,0.00,,,0.00,Wunderground v.1.15,2013-04-13 12:40:00,
2013-04-13 08:45:00,40.8,32.8,29.88,WSW,244,1.0,1.0,73,0.00,,,0.00,Wunderground v.1.15,2013-04-13 12:45:00,
2013-04-13 09:00:00,40.8,33.2,29.88,SW,222,2.0,2.0,74,0.00,,,0.00,Wunderground v.1.15,2013-04-13 13:00:00,
2013-04-13 09:05:00,40.9,33.2,29.89,WNW,295,1.0,2.0,74,0.00,,,0.00,Wunderground v.1.15,2013-04-13 13:05:00,
2013-04-13 09:15:00,41.1,33.1,29.89,SE,145,1.0,3.0,73,0.00,,,0.00,Wunderground v.1.15,2013-04-13 13:15:00,
2013-04-13 09:25:00,41.2,32.9,29.88,SW,231,2.0,2.0,72,0.00,,,0.00,Wunderground v.1.15,2013-04-13 13:25:00,
2013-04-13 09:35:00,41.5,33.1,29.89,SSW,213,1.0,2.0,72,0.00,,,0.00,Wunderground v.1.15,2013-04-13 13:35:00,
2013-04-13 09:40:00,41.5,33.5,29.89,SW,225,1.0,1.0,73,0.00,,,0.00,Wunderground v.1.15,2013-04-13 13:40:00,
2013-04-13 09:45:00,41.6,33.6,29.89,South,186,1.0,2.0,73,0.00,,,0.00,Wunderground v.1.15,2013-04-13 13:45:00,
2013-04-13 09:55:00,41.5,32.4,29.89,WSW,242,2.0,2.0,70,0.00,,,0.00,Wunderground v.1.15,2013-04-13 13:55:00,
2013-04-13 10:00:00,41.5,32.4,29.89,West,260,1.0,1.0,70,0.00,,,0.00,Wunderground v.1.15,2013-04-13 14:00:00,
2013-04-13 10:10:00,41.9,32.1,29.89,WSW,256,1.0,4.0,68,0.00,,,0.00,Wunderground v.1.15,2013-04-13 14:10:00,
2013-04-13 10:15:00,42.1,32.3,29.89,NNW,347,1.0,4.0,68,0.00,,,0.00,Wunderground v.1.15,2013-04-13 14:15:00,
2013-04-13 10:25:00,41.9,31.4,29.89,West,267,1.0,2.0,66,0.00,,,0.00,Wunderground v.1.15,2013-04-13 14:25:00,
2013-04-13 10:30:00,41.9,32.5,29.89,SSW,198,1.0,2.0,69,0.00,,,0.00,Wunderground v.1.15,2013-04-13 14:30:00,
2013-04-13 10:45:00,42.2,31.3,29.89,SSE,150,2.0,2.0,65,0.00,,,0.00,Wunderground v.1.15,2013-04-13 14:45:00,
2013-04-13 10:55:00,42.2,31.3,29.90,SSW,201,2.0,2.0,65,0.00,,,0.00,Wunderground v.1.15,2013-04-13 14:55:00,
2013-04-13 11:00:00,42.1,31.2,29.90,SSE,152,1.0,2.0,65,0.00,,,0.00,Wunderground v.1.15,2013-04-13 15:00:00,
2013-04-13 11:10:00,42.1,31.6,29.91,East,96,2.0,2.0,66,0.00,,,0.00,Wunderground v.1.15,2013-04-13 15:10:00,
2013-04-13 11:20:00,42.2,32.0,29.91,SSW,211,2.0,3.0,67,0.00,,,0.00,Wunderground v.1.15,2013-04-13 15:20:00,
2013-04-13 11:25:00,42.2,32.0,29.91,SSE,162,2.0,4.0,67,0.00,,,0.00,Wunderground v.1.15,2013-04-13 15:25:00,
2013-04-13 11:35:00,42.8,32.6,29.91,West,269,1.0,2.0,67,0.00,,,0.00,Wunderground v.1.15,2013-04-13 15:35:00,
2013-04-13 11:45:00,43.3,31.9,29.91,West,264,2.0,3.0,64,0.00,,,0.00,Wunderground v.1.15,2013-04-13 15:45:00,
2013-04-13 11:55:00,43.2,31.8,29.91,SW,217,1.0,3.0,64,0.00,,,0.00,Wunderground v.1.15,2013-04-13 15:55:00,
2013-04-13 12:00:00,43.1,32.1,29.91,SSW,198,2.0,3.0,65,0.00,,,0.00,Wunderground v.1.15,2013-04-13 16:00:00,
2013-04-13 12:10:00,42.8,31.8,29.92,WNW,283,3.0,8.0,65,0.00,,,0.00,Wunderground v.1.15,2013-04-13 16:10:00,
2013-04-13 12:15:00,42.9,32.7,29.92,West,265,2.0,8.0,67,0.00,,,0.00,Wunderground v.1.15,2013-04-13 16:15:00,
2013-04-13 12:25:00,43.1,31.4,29.92,East,94,2.0,3.0,63,0.00,,,0.00,Wunderground v.1.15,2013-04-13 16:25:00,
2013-04-13 12:30:00,43.8,31.6,29.92,SW,215,3.0,3.0,62,0.00,,,0.00,Wunderground v.1.15,2013-04-13 16:30:00,
2013-04-13 12:40:00,43.6,31.4,29.91,SSW,195,3.0,3.0,62,0.00,,,0.00,Wunderground v.1.15,2013-04-13 16:40:00,
2013-04-13 12:45:00,43.6,31.4,29.91,WNW,282,3.0,3.0,62,0.00,,,0.00,Wunderground v.1.15,2013-04-13 16:45:00,
2013-04-13 12:55:00,44.5,32.7,29.91,WSW,243,3.0,7.0,63,0.00,,,0.00,Wunderground v.1.15,2013-04-13 16:55:00,
2013-04-13 13:05:00,45.1,33.2,29.90,South,171,3.0,3.0,63,0.00,,,0.00,Wunderground v.1.15,2013-04-13 17:05:00,
2013-04-13 13:15:00,45.2,33.3,29.90,SW,232,3.0,3.0,63,0.00,,,0.00,Wunderground v.1.15,2013-04-13 17:15:00,
2013-04-13 13:25:00,45.2,32.1,29.91,NNW,348,3.0,4.0,60,0.00,,,0.00,Wunderground v.1.15,2013-04-13 17:25:00,
2013-04-13 13:30:00,45.4,32.7,29.91,WSW,252,3.0,4.0,61,0.00,,,0.00,Wunderground v.1.15,2013-04-13 17:30:00,
2013-04-13 13:45:00,44.9,31.4,29.91,West,267,3.0,4.0,59,0.00,,,0.00,Wunderground v.1.15,2013-04-13 17:45:00,
2013-04-13 13:55:00,45.1,32.8,29.90,WNW,290,2.0,3.0,62,0.00,,,0.00,Wunderground v.1.15,2013-04-13 17:55:00,
2013-04-13 14:00:00,45.2,32.1,29.90,SSE,161,1.0,2.0,60,0.00,,,0.00,Wunderground v.1.15,2013-04-13 18:00:00,
2013-04-13 14:10:00,45.7,32.6,29.91,West,265,2.0,3.0,60,0.00,,,0.00,Wunderground v.1.15,2013-04-13 18:10:00,
2013-04-13 14:15:00,46.0,32.9,29.91,West,269,2.0,3.0,60,0.00,,,0.00,Wunderground v.1.15,2013-04-13 18:15:00,
2013-04-13 14:30:00,46.7,33.5,29.90,WSW,239,2.0,7.0,60,0.00,,,0.00,Wunderground v.1.15,2013-04-13 18:30:00,
2013-04-13 14:35:00,46.8,33.2,29.90,SSW,209,2.0,7.0,59,0.00,,,0.00,Wunderground v.1.15,2013-04-13 18:35:00,
2013-04-13 14:40:00,46.8,32.8,29.90,WSW,239,3.0,3.0,58,0.00,,,0.00,Wunderground v.1.15,2013-04-13 18:40:00,
2013-04-13 14:45:00,47.3,34.1,29.90,SW,223,3.0,3.0,60,0.00,,,0.00,Wunderground v.1.15,2013-04-13 18:45:00,
2013-04-13 14:50:00,47.4,32.5,29.90,West,275,2.0,2.0,56,0.00,,,0.00,Wunderground v.1.15,2013-04-13 18:50:00,
2013-04-13 14:55:00,47.3,33.7,29.90,WSW,253,2.0,2.0,59,0.00,,,0.00,Wunderground v.1.15,2013-04-13 18:55:00,
2013-04-13 15:00:00,47.3,33.3,29.90,West,277,2.0,4.0,58,0.00,,,0.00,Wunderground v.1.15,2013-04-13 19:00:00,
2013-04-13 15:10:00,47.6,34.0,29.90,WSW,243,2.0,4.0,59,0.00,,,0.00,Wunderground v.1.15,2013-04-13 19:10:00,
2013-04-13 15:15:00,47.7,33.2,29.90,WNW,282,3.0,9.0,57,0.00,,,0.00,Wunderground v.1.15,2013-04-13 19:15:00,
2013-04-13 15:25:00,47.6,34.0,29.90,WSW,237,3.0,4.0,59,0.00,,,0.00,Wunderground v.1.15,2013-04-13 19:25:00,
2013-04-13 15:30:00,48.0,33.9,29.90,West,269,3.0,3.0,58,0.00,,,0.00,Wunderground v.1.15,2013-04-13 19:30:00,
2013-04-13 15:40:00,48.5,34.4,29.90,West,259,2.0,2.0,58,0.00,,,0.00,Wunderground v.1.15,2013-04-13 19:40:00,
2013-04-13 15:45:00,48.3,33.8,29.90,WNW,298,3.0,3.0,57,0.00,,,0.00,Wunderground v.1.15,2013-04-13 19:45:00,
2013-04-13 15:55:00,48.6,33.6,29.90,West,281,2.0,3.0,56,0.00,,,0.00,Wunderground v.1.15,2013-04-13 19:55:00,
2013-04-13 16:00:00,48.5,33.5,29.90,West,265,2.0,2.0,56,0.00,,,0.00,Wunderground v.1.15,2013-04-13 20:00:00,
2013-04-13 16:10:00,49.5,35.3,29.90,South,180,2.0,3.0,58,0.00,,,0.00,Wunderground v.1.15,2013-04-13 20:10:00,
2013-04-13 16:15:00,50.7,35.1,29.90,SW,229,2.0,5.0,55,0.00,,,0.00,Wunderground v.1.15,2013-04-13 20:15:00,
2013-04-13 16:25:00,49.9,34.8,29.89,SW,221,3.0,3.0,56,0.00,,,0.00,Wunderground v.1.15,2013-04-13 20:25:00,
2013-04-13 16:30:00,49.9,35.7,29.89,WSW,243,3.0,3.0,58,0.00,,,0.00,Wunderground v.1.15,2013-04-13 20:30:00,
2013-04-13 16:40:00,50.4,35.3,29.89,SW,219,2.0,5.0,56,0.00,,,0.00,Wunderground v.1.15,2013-04-13 20:40:00,
2013-04-13 16:45:00,50.2,35.5,29.89,SE,146,2.0,6.0,57,0.00,,,0.00,Wunderground v.1.15,2013-04-13 20:45:00,
2013-04-13 16:55:00,50.2,34.2,29.89,West,270,2.0,2.0,54,0.00,,,0.00,Wunderground v.1.15,2013-04-13 20:55:00,
2013-04-13 17:00:00,50.7,34.6,29.89,SSW,204,3.0,3.0,54,0.00,,,0.00,Wunderground v.1.15,2013-04-13 21:00:00,
2013-04-13 17:10:00,50.4,34.4,29.89,SW,226,3.0,3.0,54,0.00,,,0.00,Wunderground v.1.15,2013-04-13 21:10:00,
2013-04-13 17:15:00,50.5,34.0,29.89,West,275,2.0,4.0,53,0.00,,,0.00,Wunderground v.1.15,2013-04-13 21:15:00,
2013-04-13 17:25:00,51.4,34.8,29.89,SSW,194,1.0,4.0,53,0.00,,,0.00,Wunderground v.1.15,2013-04-13 21:25:00,
2013-04-13 17:30:00,51.0,34.9,29.89,West,265,2.0,2.0,54,0.00,,,0.00,Wunderground v.1.15,2013-04-13 21:30:00,
2013-04-13 17:40:00,51.3,35.7,29.89,SW,220,2.0,3.0,55,0.00,,,0.00,Wunderground v.1.15,2013-04-13 21:40:00,
2013-04-13 17:45:00,51.4,35.8,29.89,ESE,114,2.0,3.0,55,0.00,,,0.00,Wunderground v.1.15,2013-04-13 21:45:00,
2013-04-13 17:55:00,51.6,34.5,29.89,SW,230,2.0,3.0,52,0.00,,,0.00,Wunderground v.1.15,2013-04-13 21:55:00,
2013-04-13 18:00:00,51.3,34.7,29.89,North,5,2.0,2.0,53,0.00,,,0.00,Wunderground v.1.15,2013-04-13 22:00:00,
2013-04-13 18:10:00,50.8,34.7,29.89,WSW,242,2.0,2.0,54,0.00,,,0.00,Wunderground v.1.15,2013-04-13 22:10:00,
2013-04-13 18:15:00,50.8,34.3,29.89,WSW,252,2.0,3.0,53,0.00,,,0.00,Wunderground v.1.15,2013-04-13 22:15:00,
2013-04-13 18:25:00,51.3,34.7,29.89,West,280,2.0,2.0,53,0.00,,,0.00,Wunderground v.1.15,2013-04-13 22:25:00,
2013-04-13 18:30:00,51.3,35.7,29.89,SSW,194,2.0,2.0,55,0.00,,,0.00,Wunderground v.1.15,2013-04-13 22:30:00,
2013-04-13 18:40:00,50.7,35.6,29.90,West,268,2.0,2.0,56,0.00,,,0.00,Wunderground v.1.15,2013-04-13 22:40:00,
2013-04-13 18:45:00,50.2,35.1,29.90,West,268,1.0,2.0,56,0.00,,,0.00,Wunderground v.1.15,2013-04-13 22:45:00,
2013-04-13 18:55:00,49.6,35.0,29.91,WSW,253,1.0,1.0,57,0.00,,,0.00,Wunderground v.1.15,2013-04-13 22:55:00,
2013-04-13 19:00:00,49.4,35.2,29.91,NE,49,1.0,1.0,58,0.00,,,0.00,Wunderground v.1.15,2013-04-13 23:00:00,
2013-04-13 19:10:00,49.1,35.4,29.91,South,170,2.0,2.0,59,0.00,,,0.00,Wunderground v.1.15,2013-04-13 23:10:00,
2013-04-13 19:15:00,48.6,35.3,29.91,North,5,1.0,3.0,60,0.00,,,0.00,Wunderground v.1.15,2013-04-13 23:15:00,
2013-04-13 19:25:00,47.3,35.7,29.92,ENE,74,1.0,1.0,64,0.00,,,0.00,Wunderground v.1.15,2013-04-13 23:25:00,
2013-04-13 19:30:00,46.8,35.6,29.92,West,278,1.0,1.0,65,0.00,,,0.00,Wunderground v.1.15,2013-04-13 23:30:00,
2013-04-13 19:40:00,45.8,35.8,29.92,North,11,1.0,1.0,68,0.00,,,0.00,Wunderground v.1.15,2013-04-13 23:40:00,
2013-04-13 19:45:00,44.9,35.7,29.92,NNE,26,2.0,2.0,70,0.00,,,0.00,Wunderground v.1.15,2013-04-13 23:45:00,
2013-04-13 19:55:00,43.9,35.5,29.92,NE,34,1.0,2.0,72,0.00,,,0.00,Wunderground v.1.15,2013-04-13 23:55:00,
2013-04-13 20:00:00,43.5,35.4,29.92,East,80,0.0,0.0,73,0.00,,,0.00,Wunderground v.1.15,2013-04-14 00:00:00,
2013-04-13 20:10:00,42.8,35.4,29.93,NNE,32,0.0,0.0,75,0.00,,,0.00,Wunderground v.1.15,2013-04-14 00:10:00,
2013-04-13 20:15:00,42.5,35.1,29.93,NNE,30,1.0,1.0,75,0.00,,,0.00,Wunderground v.1.15,2013-04-14 00:15:00,
2013-04-13 20:25:00,42.1,35.1,29.93,NNE,17,1.0,1.0,76,0.00,,,0.00,Wunderground v.1.15,2013-04-14 00:25:00,
2013-04-13 20:30:00,41.8,35.1,29.93,NNW,348,0.0,0.0,77,0.00,,,0.00,Wunderground v.1.15,2013-04-14 00:30:00,
2013-04-13 20:40:00,41.2,34.5,29.93,NNE,21,0.0,0.0,77,0.00,,,0.00,Wunderground v.1.15,2013-04-14 00:40:00,
2013-04-13 20:45:00,41.1,34.4,29.93,NNE,21,0.0,0.0,77,0.00,,,0.00,Wunderground v.1.15,2013-04-14 00:45:00,
2013-04-13 20:55:00,40.6,34.3,29.94,NE,55,0.0,0.0,78,0.00,,,0.00,Wunderground v.1.15,2013-04-14 00:55:00,
2013-04-13 21:00:00,40.5,34.5,29.94,NE,55,0.0,0.0,79,0.00,,,0.00,Wunderground v.1.15,2013-04-14 01:00:00,
2013-04-13 21:10:00,40.1,34.1,29.95,NE,55,0.0,0.0,79,0.00,,,0.00,Wunderground v.1.15,2013-04-14 01:10:00,
2013-04-13 21:15:00,39.8,34.1,29.95,NE,55,0.0,0.0,80,0.00,,,0.00,Wunderground v.1.15,2013-04-14 01:15:00,
2013-04-13 21:25:00,39.2,33.5,29.95,NE,55,0.0,0.0,80,0.00,,,0.00,Wunderground v.1.15,2013-04-14 01:25:00,
2013-04-13 21:30:00,38.9,33.3,29.95,NE,55,0.0,0.0,80,0.00,,,0.00,Wunderground v.1.15,2013-04-14 01:30:00,
2013-04-13 21:40:00,38.6,33.6,29.96,NE,55,0.0,0.0,82,0.00,,,0.00,Wunderground v.1.15,2013-04-14 01:40:00,
2013-04-13 21:45:00,38.5,33.5,29.96,NE,55,0.0,0.0,82,0.00,,,0.00,Wunderground v.1.15,2013-04-14 01:45:00,
2013-04-13 21:55:00,38.0,33.3,29.96,NE,55,0.0,0.0,83,0.00,,,0.00,Wunderground v.1.15,2013-04-14 01:55:00,
2013-04-13 22:00:00,38.0,33.3,29.96,NE,55,0.0,0.0,83,0.00,,,0.00,Wunderground v.1.15,2013-04-14 02:00:00,
2013-04-13 22:10:00,37.9,33.2,29.97,NE,55,0.0,0.0,83,0.00,,,0.00,Wunderground v.1.15,2013-04-14 02:10:00,
2013-04-13 22:15:00,37.8,32.8,29.97,NE,55,0.0,0.0,82,0.00,,,0.00,Wunderground v.1.15,2013-04-14 02:15:00,
2013-04-13 22:25:00,37.5,32.5,29.97,NE,55,0.0,0.0,82,0.00,,,0.00,Wunderground v.1.15,2013-04-14 02:25:00,
2013-04-13 22:30:00,37.3,32.3,29.97,NE,55,0.0,0.0,82,0.00,,,0.00,Wunderground v.1.15,2013-04-14 02:30:00,
2013-04-13 22:40:00,37.3,32.0,29.98,NE,55,0.0,0.0,81,0.00,,,0.00,Wunderground v.1.15,2013-04-14 02:40:00,
2013-04-13 22:45:00,37.2,31.9,29.98,NE,55,0.0,0.0,81,0.00,,,0.00,Wunderground v.1.15,2013-04-14 02:45:00,
2013-04-13 22:55:00,37.0,31.7,29.98,NE,55,0.0,0.0,81,0.00,,,0.00,Wunderground v.1.15,2013-04-14 02:55:00,
2013-04-13 23:00:00,36.9,31.6,29.98,NE,55,0.0,0.0,81,0.00,,,0.00,Wunderground v.1.15,2013-04-14 03:00:00,
2013-04-13 23:05:00,36.8,31.5,29.98,NE,55,0.0,0.0,81,0.00,,,0.00,Wunderground v.1.15,2013-04-14 03:05:00,
2013-04-13 23:15:00,36.2,31.2,29.98,NE,55,0.0,0.0,82,0.00,,,0.00,Wunderground v.1.15,2013-04-14 03:15:00,
2013-04-13 23:25:00,35.9,30.9,29.99,NE,55,0.0,0.0,82,0.00,,,0.00,Wunderground v.1.15,2013-04-14 03:25:00,
2013-04-13 23:30:00,35.6,30.9,29.99,NE,55,0.0,0.0,83,0.00,,,0.00,Wunderground v.1.15,2013-04-14 03:30:00,
2013-04-13 23:40:00,35.3,30.9,29.99,NE,55,0.0,0.0,84,0.00,,,0.00,Wunderground v.1.15,2013-04-14 03:40:00,
2013-04-13 23:45:00,35.2,30.9,29.99,NE,55,0.0,0.0,84,0.00,,,0.00,Wunderground v.1.15,2013-04-14 03:45:00,
2013-04-13 23:55:00,34.9,30.6,29.99,NE,55,0.0,0.0,84,0.00,,,0.00,Wunderground v.1.15,2013-04-14 03:55:00,